createdAt,value
2024-03-11T00:00:27.808Z,35.33
2024-03-11T00:03:16.607Z,34.40
2024-03-11T00:06:05.010Z,33.93
2024-03-11T00:08:53.701Z,37.33
2024-03-11T00:11:49.642Z,34.57
2024-03-11T00:14:48.463Z,36.00
2024-03-11T00:17:38.357Z,32.30
2024-03-11T00:20:27.352Z,35.00
2024-03-11T00:23:15.952Z,30.57
2024-03-11T00:26:04.647Z,33.80
2024-03-11T00:28:52.883Z,35.40
2024-03-11T00:31:41.108Z,30.17
2024-03-11T00:34:31.082Z,33.17
2024-03-11T00:37:20.215Z,32.17
2024-03-11T00:40:10.349Z,33.27
2024-03-11T00:42:58.689Z,32.77
2024-03-11T00:45:47.898Z,34.67
2024-03-11T00:48:38.252Z,32.53
2024-03-11T00:51:28.262Z,33.27
2024-03-11T00:54:17.266Z,33.37
2024-03-11T00:57:06.310Z,32.00
2024-03-11T00:59:55.632Z,32.50
2024-03-11T01:02:44.759Z,36.20
2024-03-11T01:05:33.437Z,33.90
2024-03-11T01:08:23.240Z,37.43
2024-03-11T01:11:12.306Z,33.80
2024-03-11T01:14:00.793Z,36.40
2024-03-11T01:16:49.375Z,39.03
2024-03-11T01:19:37.926Z,35.53
2024-03-11T01:22:26.310Z,35.47
2024-03-11T01:25:16.041Z,38.27
2024-03-11T01:28:04.877Z,33.20
2024-03-11T01:30:53.828Z,37.80
2024-03-11T01:33:42.336Z,36.53
2024-03-11T01:36:35.873Z,36.73
2024-03-11T01:39:27.512Z,33.10
2024-03-11T01:42:18.692Z,34.13
2024-03-11T01:45:08.603Z,35.80
2024-03-11T01:47:58.445Z,35.80
2024-03-11T01:50:47.013Z,35.30
2024-03-11T01:53:36.672Z,34.77
2024-03-11T01:56:25.319Z,35.27
2024-03-11T01:59:16.101Z,38.17
2024-03-11T02:02:08.968Z,36.80
2024-03-11T02:04:58.737Z,38.63
2024-03-11T02:07:48.961Z,36.70
2024-03-11T02:10:38.051Z,37.87
2024-03-11T02:13:27.999Z,37.77
2024-03-11T02:16:20.605Z,35.83
2024-03-11T02:19:11.060Z,37.67
2024-03-11T02:22:04.533Z,34.07
2024-03-11T02:24:54.774Z,32.93
2024-03-11T02:27:43.299Z,37.20
2024-03-11T02:30:32.261Z,33.90
2024-03-11T02:33:21.051Z,36.60
2024-03-11T02:36:10.289Z,34.23
2024-03-11T02:38:59.510Z,37.03
2024-03-11T02:41:51.737Z,34.73
2024-03-11T02:44:40.248Z,38.03
2024-03-11T02:47:28.870Z,35.77
2024-03-11T02:50:18.168Z,35.90
2024-03-11T02:53:07.147Z,36.10
2024-03-11T02:55:55.554Z,36.30
2024-03-11T02:58:45.658Z,38.00
2024-03-11T03:01:34.008Z,36.40
2024-03-11T03:04:22.328Z,37.80
2024-03-11T03:07:14.020Z,37.30
2024-03-11T03:10:02.574Z,36.50
2024-03-11T03:12:51.225Z,38.33
2024-03-11T03:15:40.929Z,38.10
2024-03-11T03:18:29.362Z,35.00
2024-03-11T03:21:18.566Z,37.60
2024-03-11T03:24:07.536Z,33.50
2024-03-11T03:26:55.861Z,38.10
2024-03-11T03:29:45.775Z,35.50
2024-03-11T03:32:35.631Z,37.03
2024-03-11T03:35:24.378Z,35.30
2024-03-11T03:38:12.686Z,35.50
2024-03-11T03:41:01.162Z,36.67
2024-03-11T03:43:50.520Z,34.23
2024-03-11T03:46:38.637Z,37.53
2024-03-11T03:49:28.486Z,36.40
2024-03-11T03:52:16.797Z,38.70
2024-03-11T03:55:05.867Z,37.70
2024-03-11T03:57:54.760Z,35.17
2024-03-11T04:00:42.903Z,36.67
2024-03-11T04:03:31.362Z,36.03
2024-03-11T04:06:21.754Z,34.77
2024-03-11T04:09:10.279Z,40.00
2024-03-11T04:11:58.812Z,38.07
2024-03-11T04:14:47.462Z,37.67
2024-03-11T04:17:35.830Z,40.80
2024-03-11T04:20:28.465Z,39.07
2024-03-11T04:23:19.323Z,37.63
2024-03-11T04:26:09.227Z,37.33
2024-03-11T04:28:57.792Z,40.73
2024-03-11T04:31:46.452Z,38.53
2024-03-11T04:34:34.985Z,35.33
2024-03-11T04:37:23.430Z,37.67
2024-03-11T04:40:14.016Z,38.27
2024-03-11T04:43:02.625Z,37.60
2024-03-11T04:45:51.399Z,35.47
2024-03-11T04:48:40.255Z,37.00
2024-03-11T04:51:28.592Z,38.10
2024-03-11T04:54:17.606Z,38.00
2024-03-11T04:57:07.478Z,39.60
2024-03-11T04:59:55.878Z,38.13
2024-03-11T05:02:44.510Z,37.67
2024-03-11T05:05:37.135Z,38.87
2024-03-11T05:08:26.074Z,41.13
2024-03-11T05:11:18.132Z,41.00
2024-03-11T05:14:08.598Z,40.87
2024-03-11T05:16:57.043Z,41.67
2024-03-11T05:19:46.402Z,41.43
2024-03-11T05:22:35.179Z,43.83
2024-03-11T05:25:23.366Z,44.57
2024-03-11T05:28:11.552Z,46.07
2024-03-11T05:31:01.635Z,45.80
2024-03-11T05:33:50.032Z,47.43
2024-03-11T05:36:38.253Z,43.53
2024-03-11T05:39:26.574Z,49.33
2024-03-11T05:42:15.989Z,43.60
2024-03-11T05:45:04.497Z,44.67
2024-03-11T05:47:55.183Z,44.37
2024-03-11T05:50:44.331Z,42.20
2024-03-11T05:53:35.553Z,39.67
2024-03-11T05:56:24.046Z,38.50
2024-03-11T05:59:15.934Z,36.07
2024-03-11T06:02:04.539Z,32.57
2024-03-11T06:04:54.693Z,31.10
2024-03-11T06:07:43.677Z,26.63
2024-03-11T06:10:34.600Z,29.40
2024-03-11T06:13:23.439Z,26.83
2024-03-11T06:16:13.388Z,24.07
2024-03-11T06:19:02.175Z,18.47
2024-03-11T06:21:55.128Z,17.20
2024-03-11T06:24:44.652Z,14.07
2024-03-11T06:27:33.886Z,10.83
2024-03-11T06:30:22.120Z,10.97
2024-03-11T06:33:13.391Z,10.00
2024-03-11T06:36:02.071Z,8.73
2024-03-11T06:38:54.497Z,8.87
2024-03-11T06:41:44.793Z,8.07
2024-03-11T06:44:40.434Z,7.50
2024-03-11T06:47:30.355Z,6.00
2024-03-11T06:50:19.374Z,6.93
2024-03-11T06:53:13.713Z,7.17
2024-03-11T06:56:08.796Z,7.47
2024-03-11T06:58:59.797Z,6.93
2024-03-11T07:01:49.280Z,8.93
2024-03-11T07:04:38.333Z,7.00
2024-03-11T07:07:35.166Z,7.23
2024-03-11T07:10:28.180Z,6.73
2024-03-11T07:13:19.657Z,7.60
2024-03-11T07:16:15.440Z,8.43
2024-03-11T07:19:07.820Z,8.77
2024-03-11T07:21:59.295Z,8.27
2024-03-11T07:24:50.393Z,9.57
2024-03-11T07:27:41.336Z,8.40
2024-03-11T07:30:31.751Z,8.07
2024-03-11T07:33:21.942Z,8.30
2024-03-11T07:36:14.433Z,9.00
2024-03-11T07:39:04.513Z,8.87
2024-03-11T07:41:55.360Z,7.87
2024-03-11T07:44:48.704Z,7.53
2024-03-11T07:47:40.734Z,9.47
2024-03-11T07:50:31.554Z,7.87
2024-03-11T07:53:20.434Z,9.30
2024-03-11T07:56:16.370Z,10.20
2024-03-11T07:59:06.339Z,9.97
2024-03-11T08:01:55.433Z,9.27
2024-03-11T08:04:47.722Z,11.60
2024-03-11T08:07:37.972Z,10.87
2024-03-11T08:10:28.883Z,8.23
2024-03-11T08:13:17.603Z,9.50
2024-03-11T08:16:12.384Z,9.27
2024-03-11T08:19:02.734Z,9.17
2024-03-11T08:21:52.671Z,7.43
2024-03-11T08:24:41.257Z,8.30
2024-03-11T08:27:29.700Z,9.87
2024-03-11T08:30:22.328Z,8.53
2024-03-11T08:33:13.675Z,7.80
2024-03-11T08:36:07.245Z,9.03
2024-03-11T08:38:57.735Z,7.90
2024-03-11T08:41:50.137Z,6.17
2024-03-11T08:44:46.118Z,5.97
2024-03-11T08:47:45.757Z,4.97
2024-03-11T08:50:37.501Z,3.57
2024-03-11T08:53:31.627Z,4.97
2024-03-11T08:56:23.798Z,4.37
2024-03-11T08:59:16.691Z,3.63
2024-03-11T09:02:13.431Z,3.40
2024-03-11T09:05:05.504Z,2.50
2024-03-11T09:07:55.563Z,2.30
2024-03-11T09:10:44.280Z,2.00
2024-03-11T09:13:34.706Z,2.57
2024-03-11T09:16:25.995Z,1.30
2024-03-11T09:19:20.134Z,0.77
2024-03-11T09:22:09.387Z,0.93
2024-03-11T09:24:59.380Z,1.13
2024-03-11T09:27:51.706Z,0.60
2024-03-11T09:30:42.723Z,0.53
2024-03-11T09:33:31.804Z,0.60
2024-03-11T09:36:20.924Z,0.43
2024-03-11T09:39:13.621Z,0.50
2024-03-11T09:42:07.058Z,0.40
2024-03-11T09:45:05.760Z,0.33
2024-03-11T09:48:00.738Z,0.33
2024-03-11T09:50:56.558Z,0.20
2024-03-11T09:53:48.631Z,0.30
2024-03-11T09:56:43.975Z,0.30
2024-03-11T09:59:35.302Z,0.40
2024-03-11T10:02:28.517Z,0.20
2024-03-11T10:05:19.433Z,0.10
2024-03-11T10:08:09.254Z,0.30
2024-03-11T10:11:16.165Z,0.30
2024-03-11T10:14:21.458Z,0.20
2024-03-11T10:17:21.850Z,0.10
2024-03-11T10:20:15.780Z,0.03
2024-03-11T10:23:11.052Z,0.20
2024-03-11T10:26:18.675Z,0.10
2024-03-11T10:29:07.549Z,0.47
2024-03-11T10:31:57.032Z,0.10
2024-03-11T10:34:56.818Z,0.10
2024-03-11T10:37:46.039Z,0.23
2024-03-11T10:40:39.742Z,0.30
2024-03-11T10:43:29.952Z,0.00
2024-03-11T10:46:24.228Z,0.10
2024-03-11T10:49:14.574Z,0.10
2024-03-11T10:52:09.596Z,0.10
2024-03-11T10:55:11.533Z,0.10
2024-03-11T10:58:12.253Z,0.10
2024-03-11T11:01:09.157Z,0.23
2024-03-11T11:04:03.368Z,1.00
2024-03-11T11:06:54.079Z,0.20
2024-03-11T11:09:50.924Z,0.50
2024-03-11T11:12:45.608Z,0.30
2024-03-11T11:15:44.655Z,0.30
2024-03-11T11:18:40.035Z,0.20
2024-03-11T11:21:34.722Z,0.10
2024-03-11T11:24:32.926Z,0.30
2024-03-11T11:27:29.020Z,0.23
2024-03-11T11:30:24.858Z,0.10
2024-03-11T11:33:51.556Z,0.40
2024-03-11T11:37:09.990Z,0.10
2024-03-11T11:40:03.189Z,0.27
2024-03-11T11:42:58.714Z,0.10
2024-03-11T11:45:56.324Z,0.10
2024-03-11T11:48:48.892Z,0.23
2024-03-11T11:51:41.938Z,0.23
2024-03-11T11:54:38.153Z,0.23
2024-03-11T11:57:29.086Z,0.20
2024-03-11T12:00:21.991Z,0.10
2024-03-11T12:03:32.350Z,0.30
2024-03-11T12:06:30.088Z,0.27
2024-03-11T12:09:26.201Z,0.30
2024-03-11T12:12:29.805Z,0.53
2024-03-11T12:15:22.512Z,0.23
2024-03-11T12:18:22.589Z,4.47
2024-03-11T12:21:18.073Z,1.40
2024-03-11T12:24:16.209Z,0.93
2024-03-11T12:27:14.657Z,0.50
2024-03-11T12:30:12.622Z,0.30
2024-03-11T12:33:06.795Z,0.33
2024-03-11T12:36:00.829Z,0.30
2024-03-11T12:38:55.424Z,0.30
2024-03-11T12:41:53.048Z,0.57
2024-03-11T12:44:48.581Z,1.40
2024-03-11T12:47:42.875Z,0.40
2024-03-11T12:50:40.122Z,0.60
2024-03-11T12:53:34.799Z,0.47
2024-03-11T12:56:29.230Z,0.50
2024-03-11T12:59:20.625Z,0.43
2024-03-11T13:02:22.141Z,0.53
2024-03-11T13:05:22.653Z,0.40
2024-03-11T13:08:19.570Z,1.43
2024-03-11T13:11:11.477Z,1.00
2024-03-11T13:14:04.009Z,0.77
2024-03-11T13:16:56.452Z,0.63
2024-03-11T13:19:49.686Z,0.60
2024-03-11T13:22:42.969Z,0.30
2024-03-11T13:25:37.551Z,0.60
2024-03-11T13:28:30.345Z,0.43
2024-03-11T13:31:22.237Z,0.57
2024-03-11T13:34:20.206Z,1.40
2024-03-11T13:37:13.430Z,1.63
2024-03-11T13:40:09.472Z,0.60
2024-03-11T13:42:59.301Z,0.83
2024-03-11T13:45:53.660Z,0.80
2024-03-11T13:48:44.103Z,0.70
2024-03-11T13:51:38.755Z,0.83
2024-03-11T13:54:29.345Z,0.57
2024-03-11T13:57:19.182Z,1.07
2024-03-11T14:00:21.294Z,1.00
2024-03-11T14:03:21.136Z,1.20
2024-03-11T14:06:15.074Z,1.10
2024-03-11T14:09:11.594Z,1.43
2024-03-11T14:12:04.119Z,1.30
2024-03-11T14:15:02.232Z,1.40
2024-03-11T14:17:59.002Z,1.60
2024-03-11T14:20:59.580Z,1.77
2024-03-11T14:23:55.458Z,1.70
2024-03-11T14:26:57.857Z,2.27
2024-03-11T14:30:00.304Z,2.80
2024-03-11T14:32:56.342Z,1.60
2024-03-11T14:35:49.941Z,2.57
2024-03-11T14:38:43.695Z,2.13
2024-03-11T14:41:35.550Z,2.83
2024-03-11T14:44:27.104Z,3.33
2024-03-11T14:47:22.034Z,5.53
2024-03-11T14:50:16.938Z,2.80
2024-03-11T14:53:08.351Z,2.93
2024-03-11T14:56:00.546Z,2.90
2024-03-11T14:58:55.072Z,3.13
2024-03-11T15:01:49.735Z,4.00
2024-03-11T15:04:44.937Z,4.33
2024-03-11T15:07:34.940Z,3.60
2024-03-11T15:10:34.331Z,3.90
2024-03-11T15:13:28.158Z,3.40
2024-03-11T15:16:23.528Z,4.17
2024-03-11T15:19:21.012Z,5.00
2024-03-11T15:22:14.179Z,5.20
2024-03-11T15:25:06.233Z,4.27
2024-03-11T15:27:55.605Z,4.77
2024-03-11T15:30:48.846Z,5.30
2024-03-11T15:33:43.132Z,6.50
2024-03-11T15:36:36.889Z,7.10
2024-03-11T15:39:33.565Z,6.67
2024-03-11T15:42:26.182Z,6.40
2024-03-11T15:45:19.441Z,7.10
2024-03-11T15:48:10.693Z,5.60
2024-03-11T15:51:01.762Z,5.57
2024-03-11T15:54:02.758Z,5.77
2024-03-11T15:56:55.181Z,6.83
2024-03-11T15:59:45.485Z,6.30
2024-03-11T16:02:37.532Z,5.33
2024-03-11T16:05:28.462Z,6.03
2024-03-11T16:08:21.173Z,5.93
2024-03-11T16:11:19.776Z,6.57
2024-03-11T16:14:08.467Z,5.43
2024-03-11T16:16:59.871Z,6.13
2024-03-11T16:19:49.465Z,7.70
2024-03-11T16:22:41.954Z,8.00
2024-03-11T16:25:31.917Z,6.57
2024-03-11T16:28:26.920Z,5.37
2024-03-11T16:31:17.278Z,6.03
2024-03-11T16:34:06.539Z,5.73
2024-03-11T16:36:55.716Z,4.80
2024-03-11T16:39:44.318Z,5.33
2024-03-11T16:42:34.203Z,6.00
2024-03-11T16:45:23.954Z,4.77
2024-03-11T16:48:14.110Z,4.90
2024-03-11T16:51:03.405Z,4.27
2024-03-11T16:53:54.476Z,5.13
2024-03-11T16:56:46.083Z,3.97
2024-03-11T16:59:34.493Z,5.87
2024-03-11T17:02:23.144Z,5.10
2024-03-11T17:05:13.935Z,5.50
2024-03-11T17:08:04.182Z,4.30
2024-03-11T17:10:55.430Z,5.40
2024-03-11T17:13:46.944Z,5.50
2024-03-11T17:16:36.783Z,6.87
2024-03-11T17:19:28.160Z,5.27
2024-03-11T17:22:16.485Z,6.10
2024-03-11T17:25:03.904Z,4.83
2024-03-11T17:27:52.659Z,5.53
2024-03-11T17:30:44.797Z,5.63
2024-03-11T17:33:34.028Z,5.77
2024-03-11T17:36:22.939Z,6.00
2024-03-11T17:39:13.327Z,4.53
2024-03-11T17:42:01.529Z,4.47
2024-03-11T17:44:49.576Z,5.30
2024-03-11T17:47:40.400Z,6.33
2024-03-11T17:50:30.200Z,4.87
2024-03-11T17:53:20.920Z,3.80
2024-03-11T17:56:09.898Z,4.73
2024-03-11T17:58:59.544Z,5.37
2024-03-11T18:01:46.744Z,4.67
2024-03-11T18:04:35.282Z,7.17
2024-03-11T18:07:23.230Z,6.67
2024-03-11T18:10:16.684Z,5.90
2024-03-11T18:13:07.343Z,8.00
2024-03-11T18:15:55.696Z,6.20
2024-03-11T18:18:43.834Z,4.60
2024-03-11T18:21:36.826Z,5.23
2024-03-11T18:24:25.317Z,4.37
2024-03-11T18:27:14.981Z,4.67
2024-03-11T18:30:03.416Z,4.60
2024-03-11T18:32:54.266Z,5.73
2024-03-11T18:35:44.096Z,4.57
2024-03-11T18:38:35.875Z,5.30
2024-03-11T18:41:25.758Z,5.33
2024-03-11T18:44:16.586Z,4.80
2024-03-11T18:47:05.647Z,6.43
2024-03-11T18:49:55.532Z,4.70
2024-03-11T18:52:52.919Z,4.23
2024-03-11T18:55:46.663Z,4.57
2024-03-11T18:58:35.297Z,5.80
2024-03-11T19:01:25.539Z,4.40
2024-03-11T19:04:16.180Z,5.40
2024-03-11T19:07:07.286Z,4.57
2024-03-11T19:09:56.657Z,7.33
2024-03-11T19:12:48.296Z,5.60
2024-03-11T19:15:39.591Z,5.10
2024-03-11T19:18:31.998Z,4.43
2024-03-11T19:21:20.591Z,5.77
2024-03-11T19:24:10.368Z,6.63
2024-03-11T19:27:04.025Z,3.53
2024-03-11T19:29:57.447Z,4.40
2024-03-11T19:32:46.666Z,4.53
2024-03-11T19:35:38.479Z,4.63
2024-03-11T19:39:11.037Z,5.23
2024-03-11T19:42:33.119Z,3.73
2024-03-11T19:45:59.326Z,4.10
2024-03-11T19:49:17.616Z,3.73
2024-03-11T19:52:43.693Z,3.77
2024-03-11T19:56:21.708Z,3.80
2024-03-11T19:59:57.151Z,3.83
2024-03-11T20:03:10.823Z,4.80
2024-03-11T20:06:34.473Z,4.80
2024-03-11T20:09:48.917Z,3.53
2024-03-11T20:12:59.654Z,4.27
2024-03-11T20:16:20.798Z,4.50
2024-03-11T20:19:45.282Z,4.23
2024-03-11T20:22:57.990Z,3.73
2024-03-11T20:26:09.626Z,5.30
2024-03-11T20:29:07.657Z,3.47
2024-03-11T20:32:02.950Z,4.83
2024-03-11T20:34:51.474Z,4.10
2024-03-11T20:37:40.707Z,5.37
2024-03-11T20:40:33.034Z,4.03
2024-03-11T20:43:22.279Z,3.67
2024-03-11T20:46:15.781Z,4.03
2024-03-11T20:49:04.594Z,6.03
2024-03-11T20:51:53.565Z,3.93
2024-03-11T20:54:42.290Z,3.73
2024-03-11T20:57:32.333Z,4.67
2024-03-11T21:00:21.307Z,4.60
2024-03-11T21:03:11.686Z,6.93
2024-03-11T21:06:01.928Z,3.77
2024-03-11T21:08:50.782Z,5.30
2024-03-11T21:11:39.196Z,5.07
2024-03-11T21:14:27.896Z,4.13
2024-03-11T21:17:16.423Z,4.43
2024-03-11T21:20:13.743Z,3.30
2024-03-11T21:23:05.071Z,7.40
2024-03-11T21:26:05.330Z,3.83
2024-03-11T21:28:53.829Z,3.53
2024-03-11T21:31:42.647Z,5.00
2024-03-11T21:34:30.974Z,3.20
2024-03-11T21:37:21.940Z,4.60
2024-03-11T21:40:14.063Z,4.27
2024-03-11T21:43:02.537Z,5.63
2024-03-11T21:45:51.448Z,4.37
2024-03-11T21:48:39.674Z,3.13
2024-03-11T21:51:27.945Z,3.37
2024-03-11T21:54:18.528Z,3.97
2024-03-11T21:57:07.236Z,4.40
2024-03-11T21:59:55.951Z,5.17
2024-03-11T22:02:45.669Z,3.63
2024-03-11T22:05:34.477Z,4.73
2024-03-11T22:08:22.912Z,4.40
2024-03-11T22:11:12.730Z,5.33
2024-03-11T22:14:01.233Z,4.77
2024-03-11T22:16:49.726Z,3.23
2024-03-11T22:19:38.926Z,3.87
2024-03-11T22:22:27.486Z,4.53
2024-03-11T22:25:15.734Z,3.40
2024-03-11T22:28:06.961Z,3.83
2024-03-11T22:30:55.569Z,3.63
2024-03-11T22:33:43.879Z,4.23
2024-03-11T22:36:32.869Z,4.33
2024-03-11T22:39:24.667Z,3.33
2024-03-11T22:42:13.262Z,3.83
2024-03-11T22:45:03.940Z,3.20
2024-03-11T22:47:55.697Z,6.77
2024-03-11T22:50:45.604Z,4.43
2024-03-11T22:53:34.536Z,4.97
2024-03-11T22:56:22.982Z,3.40
2024-03-11T22:59:11.352Z,4.30
2024-03-11T23:02:01.478Z,4.03
2024-03-11T23:04:51.313Z,3.00
2024-03-11T23:07:39.854Z,3.43
2024-03-11T23:10:30.058Z,4.00
2024-03-11T23:13:18.414Z,3.70
2024-03-11T23:16:07.399Z,3.70
2024-03-11T23:18:57.184Z,6.10
2024-03-11T23:21:48.086Z,4.23
2024-03-11T23:24:38.793Z,6.37
2024-03-11T23:27:27.162Z,3.87
2024-03-11T23:30:15.974Z,3.60
2024-03-11T23:33:04.797Z,4.00
2024-03-11T23:35:54.579Z,4.27
2024-03-11T23:38:43.875Z,4.07
2024-03-11T23:41:32.122Z,4.40
2024-03-11T23:44:20.410Z,6.67
2024-03-11T23:47:09.514Z,4.73
2024-03-11T23:49:57.850Z,3.90
2024-03-11T23:52:47.777Z,4.70
2024-03-11T23:55:39.970Z,3.93
2024-03-11T23:58:33.531Z,5.13
